»·PEaware :: N461KT KSAN-KSBA

N461KT :: KSAN-KSBA

FLIGHT INFORMATION

Flight Status: Arrived
Operator: Privately registered:
United States
More flights under this callsign
Pilot: Cody B. (17747)
Aircraft: BEECH AIRCRAFT PREMIER
(PRM1)
More flights by this aircraft type
Origin: KSAN San Diego Intl-Lindbergh
United States
Destination: KSBA Santa Barbara Mun
United States
More flights between these airports :: More routes between these airports
Route: +PEBLE6 SXC V208 VTU VTU282R KWANG
File this flight plan on PilotEdge
Remarks: TEC route SANP36; New Aircraft, I am testing navigational equipment which may cause me to slightly deviate.
Altitude:
(Current/Filed)
10,000ft
Speed:
(Current/Filed)
225kts
Departed: 11-Feb-20 03:07 PM
Arrived: 11-Feb-20 03:58 PM
Distance/Time
Traveled:
167nm/0:51
Distance/Time
To Go:
Arrived

Flight Plot

Page will automatically refresh every two minutes.


Map Options




Map Legend


Flown Route
Filed Route
Departure Airport
Arrival Airport
Navaid (VOR, NDB)
Fix

Horizontal Profiles

Position Reports

Time Latitude Longitude Heading Altitude Ground
Speed
11-Feb-20 14:15 32.732410 -117.177881 194 23ft 0kts
11-Feb-20 14:16 32.732410 -117.177881 194 23ft 0kts
11-Feb-20 14:17 32.732410 -117.177881 194 23ft 0kts
11-Feb-20 14:18 32.732410 -117.177881 194 23ft 0kts
11-Feb-20 14:19 32.732410 -117.177881 194 23ft 0kts
11-Feb-20 14:20 32.732410 -117.177881 194 23ft 0kts
11-Feb-20 14:21 32.732410 -117.177881 194 23ft 0kts
11-Feb-20 14:22 32.732410 -117.177881 194 23ft 0kts
11-Feb-20 14:23 32.732410 -117.177881 194 23ft 0kts
11-Feb-20 14:24 32.732410 -117.177881 194 23ft 0kts
11-Feb-20 14:25 32.732410 -117.177881 194 23ft 0kts
11-Feb-20 14:26 32.732410 -117.177881 194 23ft 0kts
11-Feb-20 14:27 32.732410 -117.177881 194 23ft 0kts
11-Feb-20 14:28 32.732410 -117.177881 194 23ft 0kts
11-Feb-20 14:29 32.732410 -117.177881 194 23ft 0kts
11-Feb-20 14:30 32.732410 -117.177881 194 23ft 0kts
11-Feb-20 14:31 32.732410 -117.177881 194 23ft 0kts
11-Feb-20 14:32 32.732410 -117.177881 194 23ft 0kts
11-Feb-20 14:33 32.732410 -117.177881 194 23ft 0kts
11-Feb-20 14:34 32.732410 -117.177881 194 23ft 0kts
11-Feb-20 14:35 32.732410 -117.177881 194 23ft 0kts
11-Feb-20 14:36 32.732410 -117.177881 194 23ft 0kts
11-Feb-20 14:37 32.732410 -117.177881 194 23ft 0kts
11-Feb-20 14:38 32.732410 -117.177881 194 23ft 0kts
11-Feb-20 14:39 32.732410 -117.177881 194 23ft 0kts
11-Feb-20 14:40 32.732410 -117.177881 194 23ft 0kts
11-Feb-20 14:41 32.732410 -117.177881 194 23ft 0kts
11-Feb-20 14:42 32.732410 -117.177881 194 23ft 0kts
11-Feb-20 14:43 32.732410 -117.177881 194 23ft 0kts
11-Feb-20 14:44 32.732410 -117.177881 194 23ft 0kts
11-Feb-20 14:45 32.732410 -117.177881 194 23ft 0kts
11-Feb-20 14:46 32.732410 -117.177881 194 23ft 0kts
11-Feb-20 14:47 32.732410 -117.177881 194 23ft 0kts
11-Feb-20 14:48 32.732410 -117.177881 194 23ft 0kts
11-Feb-20 14:49 32.732410 -117.177881 194 23ft 0kts
11-Feb-20 14:50 32.732410 -117.177881 194 23ft 0kts
11-Feb-20 14:51 32.732410 -117.177881 194 23ft 0kts
11-Feb-20 14:52 32.732410 -117.177881 194 23ft 0kts
11-Feb-20 14:53 32.732410 -117.177881 194 23ft 0kts
11-Feb-20 14:54 32.732410 -117.177881 194 23ft 0kts
11-Feb-20 14:55 32.732410 -117.177881 194 23ft 0kts
11-Feb-20 14:56 32.732410 -117.177881 194 23ft 0kts
11-Feb-20 14:57 32.732410 -117.177881 194 23ft 0kts
11-Feb-20 14:58 32.732389 -117.177887 193 23ft 0kts
11-Feb-20 14:59 32.732313 -117.177910 194 23ft 0kts
11-Feb-20 15:00 32.732313 -117.177910 194 23ft 0kts
11-Feb-20 15:01 32.732313 -117.177910 194 23ft 0kts
11-Feb-20 15:02 32.732313 -117.177910 194 23ft 0kts
11-Feb-20 15:03 32.732313 -117.177910 194 23ft 0kts
11-Feb-20 15:04 32.731212 -117.175993 108 24ft 0kts
11-Feb-20 15:06 32.730875 -117.175431 140 24ft 4kts
11-Feb-20 15:07 32.732265 -117.184369 285 31ft 111kts
11-Feb-20 15:08 32.751821 -117.223423 301 2281ft 153kts
11-Feb-20 15:09 32.776620 -117.267714 309 5172ft 191kts
11-Feb-20 15:10 32.805973 -117.318398 309 8664ft 191kts
11-Feb-20 15:11 32.840558 -117.378164 309 10012ft 271kts
11-Feb-20 15:12 32.883043 -117.451643 317 9988ft 264kts
11-Feb-20 15:13 32.941755 -117.500431 332 9996ft 256kts
11-Feb-20 15:14 32.994189 -117.557430 308 9996ft 264kts
11-Feb-20 15:15 33.034479 -117.630559 308 9986ft 264kts
11-Feb-20 15:16 33.074875 -117.703969 307 9983ft 264kts
11-Feb-20 15:17 33.115580 -117.777638 307 9982ft 265kts
11-Feb-20 15:18 33.159467 -117.847649 324 9992ft 260kts
11-Feb-20 15:19 33.215052 -117.903731 314 9980ft 264kts
11-Feb-20 15:20 33.233885 -117.988019 300 10014ft 268kts
11-Feb-20 15:21 33.274667 -118.061811 308 10001ft 266kts
11-Feb-20 15:22 33.306079 -118.141678 293 9997ft 271kts
11-Feb-20 15:23 33.346647 -118.215746 308 10000ft 267kts
11-Feb-20 15:24 33.360725 -118.304619 297 9997ft 270kts
11-Feb-20 15:25 33.401726 -118.378526 308 10000ft 266kts
11-Feb-20 15:25 33.436945 -118.439510 308 10000ft 267kts
11-Feb-20 15:27 33.486496 -118.524898 308 9988ft 267kts
11-Feb-20 15:28 33.529194 -118.598291 308 9975ft 267kts
11-Feb-20 15:28 33.564041 -118.658025 308 9963ft 267kts
11-Feb-20 15:30 33.613882 -118.743462 308 9954ft 267kts
11-Feb-20 15:30 33.649459 -118.804302 308 9951ft 267kts
11-Feb-20 15:31 33.690230 -118.874082 308 9955ft 240kts
11-Feb-20 15:32 33.727089 -118.937651 308 9961ft 225kts
11-Feb-20 15:33 33.762370 -118.998389 308 9989ft 218kts
11-Feb-20 15:34 33.806275 -119.015876 49 10038ft 217kts
11-Feb-20 15:35 33.860347 -119.012633 351 10013ft 207kts
11-Feb-20 15:36 33.907311 -119.044881 336 9995ft 201kts
11-Feb-20 15:37 33.962143 -119.053301 359 10015ft 203kts
11-Feb-20 15:38 34.026047 -119.051972 0 10018ft 249kts
11-Feb-20 15:39 34.096682 -119.050780 349 10006ft 255kts
11-Feb-20 15:40 34.142115 -119.115795 301 10021ft 259kts
11-Feb-20 15:41 34.174621 -119.191729 300 10024ft 251kts
11-Feb-20 15:42 34.204069 -119.261784 299 8800ft 223kts
11-Feb-20 15:43 34.231239 -119.326674 297 6809ft 203kts
11-Feb-20 15:44 34.255191 -119.384498 297 5413ft 182kts
11-Feb-20 15:45 34.278014 -119.439132 297 4413ft 189kts
11-Feb-20 15:46 34.301850 -119.496601 297 4002ft 183kts
11-Feb-20 15:47 34.323483 -119.554189 293 4010ft 205kts
11-Feb-20 15:48 34.347728 -119.621709 293 4000ft 220kts
11-Feb-20 15:49 34.370880 -119.686418 293 3422ft 200kts
11-Feb-20 15:50 34.401311 -119.733411 332 2961ft 159kts
11-Feb-20 15:51 34.431117 -119.775548 265 2439ft 175kts
11-Feb-20 15:52 34.427851 -119.829535 264 1036ft 155kts
11-Feb-20 15:53 34.415269 -119.876841 178 1870ft 171kts
11-Feb-20 15:54 34.405206 -119.829965 86 1913ft 139kts
11-Feb-20 15:55 34.416331 -119.791224 14 1196ft 136kts
11-Feb-20 15:56 34.428177 -119.825124 268 288ft 116kts
11-Feb-20 15:57 34.427610 -119.849089 267 17ft 31kts
11-Feb-20 15:58 34.426703 -119.851763 153 17ft 0kts
11-Feb-20 15:59 34.426491 -119.848562 89 17ft 19kts
11-Feb-20 16:00 34.426624 -119.842433 88 17ft 16kts
11-Feb-20 16:01 34.426062 -119.838154 165 14ft 12kts
11-Feb-20 16:02 34.422667 -119.837163 104 16ft 1kts
11-Feb-20 16:03 34.421152 -119.835992 351 15ft 8kts
11-Feb-20 16:04 34.422987 -119.835961 268 13ft 0kts
11-Feb-20 16:05 34.422987 -119.835961 268 13ft 0kts
11-Feb-20 16:06 34.422987 -119.835961 268 13ft 0kts
11-Feb-20 16:07 34.422987 -119.835961 268 13ft 0kts
11-Feb-20 16:08 34.422987 -119.835961 268 13ft 0kts

Navigation Log

Ident Type
Flight plan parsing failed, navigation log unavailable